Sao Jose do Norte, Brazil
Current Conditions -  °F | °C
As of 1:00 AM on Saturday 22 Nov 2014 (Local Time) from SBPK Reporting Station
Scattered Clouds Scattered Clouds  
Wind Chill: 73°   Ceiling: Unl
Heat Index: 73°   Visibility: 6mi
Dew Point: 72°   Wind: 12mph
Humidity: 94%   Direction: 20°NNE
Pressure: 29.68"   Gusts: NA
Location:  32.01°S, 52.04°W
Report Text: SBPK 220300Z 02010KT 9999 FEW010 SCT060 23/22 Q1005
Loading
Personal Weather Stations






























Interactive Weather Map New forecast layout! Learn more

10-Day Weather Forecast

Advertisements
Track Severe Weather on mobile